createdAt,value
2018-03-02T00:01:01.570Z,84.20
2018-03-02T00:03:30.086Z,84.90
2018-03-02T00:05:57.905Z,85.00
2018-03-02T00:08:25.657Z,85.00
2018-03-02T00:10:53.471Z,85.50
2018-03-02T00:13:21.273Z,85.00
2018-03-02T00:15:49.138Z,84.70
2018-03-02T00:18:16.900Z,85.20
2018-03-02T00:20:44.718Z,86.00
2018-03-02T00:23:12.478Z,86.40
2018-03-02T00:25:40.240Z,86.40
2018-03-02T00:28:08.051Z,86.30
2018-03-02T00:30:35.801Z,86.80
2018-03-02T00:33:03.562Z,86.50
2018-03-02T00:35:31.368Z,87.50
2018-03-02T00:37:59.129Z,87.30
2018-03-02T00:40:26.902Z,87.50
2018-03-02T00:42:54.713Z,87.60
2018-03-02T00:45:22.475Z,88.20
2018-03-02T00:47:50.229Z,89.70
2018-03-02T00:50:18.036Z,91.30
2018-03-02T00:52:45.799Z,91.90
2018-03-02T00:55:13.561Z,92.90
2018-03-02T00:57:41.371Z,93.10
2018-03-02T01:00:09.157Z,93.80
2018-03-02T01:02:36.924Z,94.60
2018-03-02T01:05:04.746Z,96.10
2018-03-02T01:07:32.506Z,96.30
2018-03-02T01:10:00.362Z,96.80
2018-03-02T01:12:28.215Z,96.80
2018-03-02T01:14:55.964Z,97.30
2018-03-02T01:17:23.724Z,98.10
2018-03-02T01:19:51.570Z,98.30
2018-03-02T01:22:20.112Z,98.30
2018-03-02T01:24:47.873Z,98.30
2018-03-02T01:27:15.681Z,98.10
2018-03-02T01:29:44.217Z,98.20
2018-03-02T01:32:12.740Z,98.00
2018-03-02T01:34:41.419Z,98.30
2018-03-02T01:37:09.953Z,98.30
2018-03-02T01:39:37.717Z,98.30
2018-03-02T01:42:05.550Z,98.30
2018-03-02T01:44:33.302Z,98.40
2018-03-02T01:47:01.050Z,98.40
2018-03-02T01:49:29.692Z,99.30
2018-03-02T01:51:57.449Z,99.30
2018-03-02T01:54:25.201Z,99.10
2018-03-02T01:56:53.006Z,99.10
2018-03-02T01:59:21.523Z,99.90
2018-03-02T02:01:49.282Z,99.80
2018-03-02T02:04:17.093Z,99.90
2018-03-02T02:06:44.845Z,99.90
2018-03-02T02:09:12.602Z,99.90
2018-03-02T02:11:41.177Z,99.90
2018-03-02T02:14:08.944Z,99.90
2018-03-02T02:16:36.713Z,99.90
2018-03-02T02:19:04.512Z,99.90
2018-03-02T02:21:33.090Z,99.90
2018-03-02T02:24:01.609Z,99.90
2018-03-02T02:26:29.462Z,99.90
2018-03-02T02:28:57.219Z,99.90
2018-03-02T02:31:24.970Z,99.90
2018-03-02T02:33:52.787Z,99.90
2018-03-02T02:36:20.552Z,99.90
2018-03-02T02:38:48.310Z,99.90
2018-03-02T02:41:16.129Z,99.90
2018-03-02T02:43:43.894Z,99.90
2018-03-02T02:46:11.646Z,99.90
2018-03-02T02:48:39.465Z,99.90
2018-03-02T02:51:07.216Z,99.90
2018-03-02T02:53:34.965Z,99.90
2018-03-02T02:56:02.773Z,99.90
2018-03-02T02:58:31.296Z,99.90
2018-03-02T03:00:59.047Z,99.90
2018-03-02T03:03:26.854Z,99.90
2018-03-02T03:05:54.605Z,99.90
2018-03-02T03:08:22.370Z,99.90
2018-03-02T03:10:50.195Z,99.90
2018-03-02T03:13:17.949Z,99.90
2018-03-02T03:15:45.702Z,99.90
2018-03-02T03:18:13.525Z,99.90
2018-03-02T03:20:41.294Z,99.90
2018-03-02T03:23:09.055Z,99.90
2018-03-02T03:25:36.887Z,99.90
2018-03-02T03:28:04.655Z,99.90
2018-03-02T03:30:32.414Z,99.90
2018-03-02T03:33:00.399Z,99.90
2018-03-02T03:35:28.175Z,99.90
2018-03-02T03:37:55.941Z,99.90
2018-03-02T03:40:23.757Z,99.90
2018-03-02T03:42:51.550Z,99.90
2018-03-02T03:45:19.305Z,99.90
2018-03-02T03:47:47.111Z,99.90
2018-03-02T03:50:15.633Z,99.90
2018-03-02T03:52:43.473Z,99.90
2018-03-02T03:55:11.384Z,99.90
2018-03-02T03:57:39.177Z,99.90
2018-03-02T04:00:07.698Z,99.90
2018-03-02T04:02:35.515Z,99.90
2018-03-02T04:05:04.032Z,99.90
2018-03-02T04:07:31.833Z,99.90
2018-03-02T04:09:59.645Z,99.90
2018-03-02T04:12:27.401Z,99.90
2018-03-02T04:14:55.190Z,99.90
2018-03-02T04:17:23.068Z,99.90
2018-03-02T04:19:50.820Z,99.90
2018-03-02T04:22:18.581Z,99.90
2018-03-02T04:24:47.160Z,99.90
2018-03-02T04:27:14.916Z,99.90
2018-03-02T04:29:42.739Z,99.90
2018-03-02T04:32:11.306Z,99.90
2018-03-02T04:34:39.070Z,99.90
2018-03-02T04:37:06.898Z,99.90
2018-03-02T04:39:34.715Z,99.90
2018-03-02T04:42:03.236Z,99.90
2018-03-02T04:44:30.999Z,99.90
2018-03-02T04:46:58.819Z,99.90
2018-03-02T04:49:27.375Z,99.90
2018-03-02T04:51:55.134Z,99.90
2018-03-02T04:54:22.945Z,99.90
2018-03-02T04:56:50.736Z,99.90
2018-03-02T04:59:18.494Z,99.90
2018-03-02T05:01:47.064Z,99.90
2018-03-02T05:04:14.817Z,99.90
2018-03-02T05:06:42.566Z,99.90
2018-03-02T05:09:10.393Z,99.90
2018-03-02T05:11:38.152Z,99.90
2018-03-02T05:14:06.130Z,99.90
2018-03-02T05:16:34.703Z,99.90
2018-03-02T05:19:02.460Z,99.90
2018-03-02T05:21:30.253Z,99.90
2018-03-02T05:23:58.077Z,99.90
2018-03-02T05:26:25.905Z,99.90
2018-03-02T05:28:53.665Z,99.90
2018-03-02T05:31:21.658Z,99.90
2018-03-02T05:33:49.409Z,99.90
2018-03-02T05:36:17.236Z,99.90
2018-03-02T05:38:45.066Z,99.90
2018-03-02T05:41:12.831Z,99.90
2018-03-02T05:43:40.587Z,99.90
2018-03-02T05:46:10.244Z,99.90
2018-03-02T05:48:38.028Z,99.90
2018-03-02T05:51:05.798Z,99.90
2018-03-02T05:53:33.607Z,99.90
2018-03-02T05:56:01.363Z,99.90
2018-03-02T05:58:29.923Z,99.90
2018-03-02T06:00:57.737Z,99.90
2018-03-02T06:03:25.520Z,99.90
2018-03-02T06:05:53.282Z,99.90
2018-03-02T06:08:21.101Z,99.90
2018-03-02T06:10:48.858Z,99.90
2018-03-02T06:13:17.405Z,99.90
2018-03-02T06:15:45.247Z,99.90
2018-03-02T06:18:13.017Z,99.90
2018-03-02T06:20:40.774Z,99.00
2018-03-02T06:23:08.617Z,98.70
2018-03-02T06:25:36.400Z,97.60
2018-03-02T06:28:04.154Z,97.20
2018-03-02T06:30:31.958Z,97.30
2018-03-02T06:32:59.714Z,90.80
2018-03-02T06:35:27.471Z,80.60
2018-03-02T06:37:55.278Z,74.60
2018-03-02T06:40:23.031Z,74.90
2018-03-02T06:42:50.867Z,77.80
2018-03-02T06:45:18.673Z,76.50
2018-03-02T06:47:46.417Z,70.90
2018-03-02T06:50:14.181Z,62.40
2018-03-02T06:52:41.987Z,57.50
2018-03-02T06:55:09.738Z,56.90
2018-03-02T06:57:37.489Z,57.30
2018-03-02T07:00:05.329Z,57.80
2018-03-02T07:02:33.088Z,56.60
2018-03-02T07:05:02.273Z,55.80
2018-03-02T07:07:30.875Z,47.80
2018-03-02T07:09:58.625Z,47.80
2018-03-02T07:12:26.366Z,45.90
2018-03-02T07:14:54.932Z,40.70
2018-03-02T07:17:22.723Z,40.60
2018-03-02T07:19:51.263Z,38.40
2018-03-02T07:22:19.097Z,38.40
2018-03-02T07:24:46.861Z,38.90
2018-03-02T07:27:14.630Z,37.30
2018-03-02T07:29:42.429Z,37.00
2018-03-02T07:32:10.182Z,34.90
2018-03-02T07:34:37.946Z,31.90
2018-03-02T07:37:05.777Z,31.50
2018-03-02T07:39:33.663Z,29.50
2018-03-02T07:42:01.429Z,29.00
2018-03-02T07:44:29.240Z,29.50
2018-03-02T07:46:56.996Z,28.40
2018-03-02T07:49:24.746Z,29.90
2018-03-02T07:51:53.344Z,29.50
2018-03-02T07:54:21.092Z,29.50
2018-03-02T07:56:49.632Z,29.10
2018-03-02T07:59:17.447Z,29.10
2018-03-02T08:01:45.189Z,28.20
2018-03-02T08:04:13.708Z,25.80
2018-03-02T08:06:41.505Z,25.30
2018-03-02T08:09:09.368Z,24.20
2018-03-02T08:11:37.118Z,24.70
2018-03-02T08:14:04.917Z,24.20
2018-03-02T08:16:32.666Z,23.00
2018-03-02T08:19:00.410Z,23.80
2018-03-02T08:21:28.227Z,25.10
2018-03-02T08:23:56.014Z,25.10
2018-03-02T08:26:23.769Z,25.10
2018-03-02T08:28:51.568Z,23.70
2018-03-02T08:31:19.328Z,23.30
2018-03-02T08:33:47.119Z,21.90
2018-03-02T08:36:15.696Z,20.40
2018-03-02T08:38:44.211Z,20.40
2018-03-02T08:41:11.962Z,20.40
2018-03-02T08:43:39.771Z,21.00
2018-03-02T08:46:09.067Z,23.00
2018-03-02T08:48:37.517Z,22.80
2018-03-02T08:51:05.836Z,21.80
2018-03-02T08:53:34.772Z,19.50
2018-03-02T08:56:03.621Z,19.50
2018-03-02T08:58:33.609Z,20.90
2018-03-02T09:01:01.374Z,20.90
2018-03-02T09:03:29.122Z,20.90
2018-03-02T09:05:56.944Z,20.20
2018-03-02T09:08:24.699Z,19.80
2018-03-02T09:10:53.212Z,19.80
2018-03-02T09:13:21.014Z,19.80
2018-03-02T09:15:48.759Z,20.60
2018-03-02T09:18:16.504Z,21.40
2018-03-02T09:20:44.311Z,20.50
2018-03-02T09:23:12.830Z,19.50
2018-03-02T09:25:40.576Z,19.50
2018-03-02T09:28:08.378Z,23.00
2018-03-02T09:30:36.904Z,32.60
2018-03-02T09:33:05.413Z,35.10
2018-03-02T09:35:33.241Z,35.00
2018-03-02T09:38:01.757Z,36.90
2018-03-02T09:40:29.502Z,36.80
2018-03-02T09:42:57.309Z,36.30
2018-03-02T09:45:25.058Z,36.00
2018-03-02T09:47:52.809Z,35.20
2018-03-02T09:50:20.618Z,36.00
2018-03-02T09:52:48.378Z,36.40
2018-03-02T09:55:16.142Z,36.30
2018-03-02T09:57:43.993Z,36.80
2018-03-02T10:00:11.773Z,36.90
2018-03-02T10:02:40.298Z,34.70
2018-03-02T10:05:08.112Z,34.50
2018-03-02T10:07:35.878Z,35.00
2018-03-02T10:10:04.406Z,35.10
2018-03-02T10:12:32.214Z,35.00
2018-03-02T10:14:59.970Z,35.30
2018-03-02T10:17:27.726Z,36.80
2018-03-02T10:19:55.534Z,35.90
2018-03-02T10:22:23.289Z,35.90
2018-03-02T10:24:51.078Z,35.30
2018-03-02T10:27:18.891Z,35.00
2018-03-02T10:29:47.408Z,34.40
2018-03-02T10:32:15.158Z,34.40
2018-03-02T10:34:44.675Z,34.20
2018-03-02T10:37:12.430Z,34.30
2018-03-02T10:39:40.175Z,34.50
2018-03-02T10:42:08.935Z,34.10
2018-03-02T10:44:37.306Z,34.10
2018-03-02T10:47:05.067Z,34.00
2018-03-02T10:49:32.874Z,34.30
2018-03-02T10:52:00.629Z,34.00
2018-03-02T10:54:28.386Z,33.90
2018-03-02T10:56:56.199Z,33.30
2018-03-02T10:59:23.953Z,32.90
2018-03-02T11:01:54.574Z,32.80
2018-03-02T11:04:32.898Z,32.50
2018-03-02T11:07:00.658Z,32.40
2018-03-02T11:09:28.414Z,32.10
2018-03-02T11:11:56.985Z,32.10
2018-03-02T11:14:24.746Z,32.00
2018-03-02T11:16:52.521Z,32.70
2018-03-02T11:19:20.330Z,32.30
2018-03-02T11:21:48.234Z,32.10
2018-03-02T11:24:15.989Z,32.10
2018-03-02T11:26:43.797Z,31.80
2018-03-02T11:29:11.552Z,31.30
2018-03-02T11:31:39.313Z,31.40
2018-03-02T11:34:07.116Z,31.00
2018-03-02T11:36:34.872Z,31.40
2018-03-02T11:39:03.418Z,31.60
2018-03-02T11:41:31.233Z,31.50
2018-03-02T11:43:58.989Z,31.50
2018-03-02T11:46:26.750Z,30.60
2018-03-02T11:48:54.565Z,30.40
2018-03-02T11:51:22.318Z,31.10
2018-03-02T11:53:50.065Z,31.00
2018-03-02T11:56:17.865Z,30.30
2018-03-02T11:58:45.626Z,29.80
2018-03-02T12:01:13.378Z,29.60
2018-03-02T12:03:41.189Z,29.50
2018-03-02T12:06:08.982Z,29.50
2018-03-02T12:08:36.737Z,30.00
2018-03-02T12:11:04.541Z,30.00
2018-03-02T12:13:33.058Z,29.60
2018-03-02T12:16:00.858Z,29.60
2018-03-02T12:18:28.678Z,29.40
2018-03-02T12:20:56.438Z,29.20
2018-03-02T12:23:24.189Z,29.50
2018-03-02T12:25:52.764Z,28.80
2018-03-02T12:28:21.300Z,28.60
2018-03-02T12:30:49.174Z,28.60
2018-03-02T12:33:16.982Z,28.70
2018-03-02T12:35:44.728Z,28.30
2018-03-02T12:38:13.255Z,28.30
2018-03-02T12:40:41.111Z,28.30
2018-03-02T12:43:08.870Z,28.40
2018-03-02T12:45:36.630Z,28.30
2018-03-02T12:48:04.434Z,28.70
2018-03-02T12:50:32.182Z,28.00
2018-03-02T12:52:59.946Z,27.80
2018-03-02T12:55:27.750Z,28.10
2018-03-02T12:57:56.293Z,27.50
2018-03-02T13:00:24.047Z,27.50
2018-03-02T13:02:51.859Z,27.50
2018-03-02T13:05:19.626Z,27.50
2018-03-02T13:07:47.421Z,27.60
2018-03-02T13:10:15.224Z,27.30
2018-03-02T13:12:42.974Z,27.40
2018-03-02T13:15:10.721Z,27.30
2018-03-02T13:17:38.525Z,27.00
2018-03-02T13:20:07.046Z,26.50
2018-03-02T13:22:41.513Z,26.50
2018-03-02T13:25:10.033Z,26.10
2018-03-02T13:27:49.798Z,26.10
2018-03-02T13:30:17.550Z,26.20
2018-03-02T13:32:57.248Z,26.50
2018-03-02T13:35:25.775Z,26.10
2018-03-02T13:37:53.531Z,26.10
2018-03-02T13:53:52.018Z,26.10
2018-03-02T13:56:31.525Z,26.10
2018-03-02T13:58:59.349Z,26.40
2018-03-02T14:01:27.122Z,26.30
2018-03-02T14:04:06.757Z,26.40
2018-03-02T14:06:34.542Z,26.20
2018-03-02T14:09:02.307Z,25.80
2018-03-02T14:11:30.138Z,25.50
2018-03-02T14:13:57.897Z,25.90
2018-03-02T14:16:25.664Z,26.00
2018-03-02T14:18:53.481Z,26.40
2018-03-02T14:21:21.282Z,26.10
2018-03-02T14:23:49.046Z,26.00
2018-03-02T14:26:16.918Z,26.00
2018-03-02T14:28:44.686Z,26.20
2018-03-02T14:31:12.446Z,26.00
2018-03-02T14:33:40.257Z,26.20
2018-03-02T14:36:08.025Z,26.00
2018-03-02T14:38:35.813Z,26.00
2018-03-02T14:41:03.638Z,25.90
2018-03-02T14:43:31.418Z,26.10
2018-03-02T14:45:59.959Z,26.40
2018-03-02T14:48:27.775Z,26.20
2018-03-02T14:50:56.302Z,26.30
2018-03-02T14:53:24.853Z,26.40
2018-03-02T14:55:52.713Z,26.50
2018-03-02T14:58:20.477Z,26.30
2018-03-02T15:00:48.337Z,26.40
2018-03-02T15:03:16.150Z,26.40
2018-03-02T15:05:43.943Z,26.40
2018-03-02T15:08:12.479Z,26.20
2018-03-02T15:10:40.292Z,26.20
2018-03-02T15:13:08.819Z,26.60
2018-03-02T15:15:36.595Z,26.50
2018-03-02T15:18:04.405Z,26.20
2018-03-02T15:20:32.191Z,26.30
2018-03-02T15:22:59.986Z,26.30
2018-03-02T15:25:28.608Z,26.30
2018-03-02T15:27:56.365Z,26.30
2018-03-02T15:30:24.911Z,26.40
2018-03-02T15:32:52.750Z,26.40
2018-03-02T15:35:20.517Z,27.00
2018-03-02T15:37:48.282Z,26.40
2018-03-02T15:40:16.874Z,26.50
2018-03-02T15:42:44.672Z,26.40
2018-03-02T15:45:13.232Z,26.70
2018-03-02T15:47:41.041Z,26.70
2018-03-02T15:50:08.798Z,26.50
2018-03-02T15:52:36.712Z,26.40
2018-03-02T15:55:04.525Z,26.60
2018-03-02T15:57:32.277Z,26.50
2018-03-02T16:00:00.054Z,26.70
2018-03-02T16:02:27.873Z,26.90
2018-03-02T16:04:55.640Z,27.10
2018-03-02T16:07:24.179Z,27.20
2018-03-02T16:09:52.014Z,27.20
2018-03-02T16:12:19.829Z,27.40
2018-03-02T16:14:47.600Z,27.60
2018-03-02T16:17:15.418Z,27.50
2018-03-02T16:19:43.215Z,27.50
2018-03-02T16:22:10.981Z,27.70
2018-03-02T16:24:38.801Z,27.90
2018-03-02T16:27:06.561Z,28.10
2018-03-02T16:29:34.330Z,28.40
2018-03-02T16:32:02.182Z,28.20
2018-03-02T16:34:29.963Z,28.30
2018-03-02T16:36:57.726Z,28.50
2018-03-02T16:39:25.572Z,28.80
2018-03-02T16:41:53.345Z,28.50
2018-03-02T16:44:21.119Z,28.70
2018-03-02T16:46:48.940Z,29.00
2018-03-02T16:49:16.702Z,29.00
2018-03-02T16:51:45.231Z,29.20
2018-03-02T16:54:13.045Z,29.20
2018-03-02T16:56:40.811Z,29.00
2018-03-02T16:59:08.641Z,29.50
2018-03-02T17:01:36.464Z,29.60
2018-03-02T17:04:04.309Z,29.90
2018-03-02T17:06:32.089Z,29.80
2018-03-02T17:08:59.999Z,29.70
2018-03-02T17:11:27.778Z,29.50
2018-03-02T17:13:55.594Z,30.30
2018-03-02T17:16:23.429Z,30.00
2018-03-02T17:18:51.198Z,30.00
2018-03-02T17:21:18.960Z,30.10
2018-03-02T17:23:46.778Z,30.20
2018-03-02T17:26:14.594Z,30.20
2018-03-02T17:28:42.360Z,30.20
2018-03-02T17:31:10.179Z,30.20
2018-03-02T17:33:38.719Z,30.60
2018-03-02T17:36:06.504Z,30.60
2018-03-02T17:38:34.325Z,30.60
2018-03-02T17:41:02.090Z,31.20
2018-03-02T17:43:29.861Z,30.70
2018-03-02T17:45:57.681Z,31.00
2018-03-02T17:48:25.441Z,31.40
2018-03-02T17:50:53.212Z,31.60
2018-03-02T17:53:21.034Z,31.60
2018-03-02T17:55:48.828Z,31.60
2018-03-02T17:58:17.354Z,31.60
2018-03-02T18:00:45.160Z,31.60
2018-03-02T18:03:13.691Z,31.70
2018-03-02T18:05:41.487Z,31.70
2018-03-02T18:08:09.315Z,32.00
2018-03-02T18:10:37.088Z,32.10
2018-03-02T18:13:04.869Z,32.00
2018-03-02T18:15:32.683Z,32.20
2018-03-02T18:18:00.469Z,32.30
2018-03-02T18:20:28.254Z,32.60
2018-03-02T18:22:56.089Z,33.20
2018-03-02T18:25:23.845Z,33.20
2018-03-02T18:27:51.615Z,33.50
2018-03-02T18:30:19.442Z,33.40
2018-03-02T18:32:47.223Z,33.60
2018-03-02T18:35:14.995Z,34.00
2018-03-02T18:37:42.823Z,34.20
2018-03-02T18:40:10.602Z,34.20
2018-03-02T18:42:38.397Z,34.60
2018-03-02T18:45:06.243Z,34.90
2018-03-02T18:47:34.049Z,35.20
2018-03-02T18:50:01.815Z,35.30
2018-03-02T18:52:29.650Z,35.20
2018-03-02T18:54:57.451Z,35.40
2018-03-02T18:57:25.988Z,35.80
2018-03-02T18:59:53.864Z,35.80
2018-03-02T19:02:21.639Z,35.80
2018-03-02T19:04:49.411Z,36.20
2018-03-02T19:07:18.013Z,37.20
2018-03-02T19:09:45.774Z,36.80
2018-03-02T19:12:13.547Z,36.60
2018-03-02T19:14:41.393Z,36.80
2018-03-02T19:17:09.939Z,37.40
2018-03-02T19:19:37.727Z,37.40
2018-03-02T19:22:06.328Z,38.10
2018-03-02T19:24:34.139Z,38.10
2018-03-02T19:27:02.689Z,38.60
2018-03-02T19:29:30.614Z,38.70
2018-03-02T19:31:59.199Z,39.10
2018-03-02T19:34:27.750Z,39.30
2018-03-02T19:36:55.604Z,39.40
2018-03-02T19:39:23.423Z,39.70
2018-03-02T19:41:51.198Z,40.20
2018-03-02T19:44:19.051Z,40.40
2018-03-02T19:46:46.835Z,40.70
2018-03-02T19:49:14.627Z,40.90
2018-03-02T19:51:42.447Z,41.40
2018-03-02T19:54:10.214Z,41.90
2018-03-02T19:56:38.012Z,42.30
2018-03-02T19:59:05.836Z,42.40
2018-03-02T20:01:33.604Z,43.10
2018-03-02T20:04:01.378Z,43.10
2018-03-02T20:06:29.234Z,43.60
2018-03-02T20:08:57.030Z,44.00
2018-03-02T20:11:24.823Z,44.30
2018-03-02T20:13:53.469Z,45.20
2018-03-02T20:16:21.239Z,45.20
2018-03-02T20:18:49.019Z,45.40
2018-03-02T20:21:16.866Z,46.20
2018-03-02T20:23:44.629Z,46.10
2018-03-02T20:26:12.434Z,46.80
2018-03-02T20:28:40.261Z,46.80
2018-03-02T20:31:08.025Z,46.80
2018-03-02T20:33:35.817Z,46.90
2018-03-02T20:36:03.646Z,47.10
2018-03-02T20:38:31.458Z,47.20
2018-03-02T20:40:59.264Z,47.60
2018-03-02T20:43:27.133Z,48.10
2018-03-02T20:45:59.924Z,48.40
2018-03-02T20:48:27.795Z,48.60
2018-03-02T20:50:56.382Z,49.50
2018-03-02T20:53:26.038Z,49.00
2018-03-02T20:55:53.862Z,49.00
2018-03-02T20:58:21.699Z,49.00
2018-03-02T21:00:49.552Z,49.10
2018-03-02T21:03:17.388Z,49.10
2018-03-02T21:05:45.181Z,49.50
2018-03-02T21:08:12.956Z,49.60
2018-03-02T21:10:40.861Z,50.40
2018-03-02T21:13:08.642Z,50.40
2018-03-02T21:15:36.442Z,50.60
2018-03-02T21:18:04.260Z,51.40
2018-03-02T21:20:32.030Z,51.50
2018-03-02T21:22:59.830Z,51.40
2018-03-02T21:25:28.417Z,51.40
2018-03-02T21:27:56.952Z,52.40
2018-03-02T21:30:24.720Z,52.10
2018-03-02T21:32:52.537Z,52.70
2018-03-02T21:35:21.093Z,52.80
2018-03-02T21:37:48.857Z,52.80
2018-03-02T21:40:16.710Z,52.90
2018-03-02T21:42:44.473Z,53.00
2018-03-02T21:45:12.253Z,53.10
2018-03-02T21:47:40.864Z,53.00
2018-03-02T21:52:47.777Z,53.30
2018-03-02T21:55:15.568Z,53.70
2018-03-02T21:57:43.330Z,53.50
2018-03-02T22:00:11.154Z,53.50
2018-03-02T22:02:38.927Z,54.00
2018-03-02T22:05:06.694Z,54.10
2018-03-02T22:07:34.518Z,54.50
2018-03-02T22:10:02.272Z,54.50
2018-03-02T22:12:30.850Z,54.50
2018-03-02T22:14:59.548Z,55.00
2018-03-02T22:17:27.328Z,55.00
2018-03-02T22:19:55.098Z,55.40
2018-03-02T22:22:23.026Z,55.50
2018-03-02T22:24:51.557Z,55.70
2018-03-02T22:27:19.317Z,55.60
2018-03-02T22:29:47.333Z,55.80
2018-03-02T22:32:15.858Z,56.40
2018-03-02T22:34:43.635Z,56.30
2018-03-02T22:37:11.446Z,56.40
2018-03-02T22:39:39.211Z,57.50
2018-03-02T22:42:06.973Z,57.50
2018-03-02T22:44:34.790Z,58.00
2018-03-02T22:47:02.561Z,57.50
2018-03-02T22:49:30.639Z,58.00
2018-03-02T22:51:58.460Z,57.90
2018-03-02T22:54:26.222Z,57.60
2018-03-02T22:56:53.989Z,57.80
2018-03-02T22:59:21.812Z,58.20
2018-03-02T23:01:49.578Z,58.70
2018-03-02T23:04:17.346Z,59.00
2018-03-02T23:06:45.372Z,58.90
2018-03-02T23:09:13.133Z,59.40
2018-03-02T23:11:40.938Z,59.10
2018-03-02T23:14:08.770Z,59.80
2018-03-02T23:16:36.532Z,59.80
2018-03-02T23:19:04.294Z,60.60
2018-03-02T23:21:32.126Z,61.40
2018-03-02T23:24:00.646Z,61.80
2018-03-02T23:26:29.209Z,62.10
2018-03-02T23:28:57.040Z,62.10
2018-03-02T23:31:24.809Z,62.20
2018-03-02T23:33:52.569Z,62.50
2018-03-02T23:36:20.401Z,63.00
2018-03-02T23:38:48.166Z,64.30
2018-03-02T23:41:15.963Z,65.20
2018-03-02T23:43:43.800Z,64.70
2018-03-02T23:46:11.572Z,65.10
2018-03-02T23:48:39.366Z,64.50
2018-03-02T23:51:07.191Z,65.30
2018-03-02T23:53:34.957Z,65.30
2018-03-02T23:56:02.761Z,65.30
2018-03-02T23:58:30.593Z,65.50
